Time;durP1;ratioP1;P1;durP2;ratioP2;P2;SDS_P1;SDS_P2;PMS_P1;PMS_P2;Temp;Humidity;BMP_temperature;BMP_pressure;BME280_temperature;BME280_humidity;BME280_pressure;Samples;Min_cycle;Max_cycle;Signal;HPM_P1;HPM_P2
2023/08/03 00:01:03;;;;;;;3.67;2.67;;;;;;;27.59;49.37;99998.91;5065938;28;20055;-58
2023/08/03 00:03:31;;;;;;;4.68;2.75;;;;;;;27.59;49.06;99998.09;5065498;28;20045;-58
2023/08/03 00:05:58;;;;;;;4.97;2.63;;;;;;;27.60;49.33;99999.75;5068100;28;20048;-58
2023/08/03 00:08:26;;;;;;;4.68;2.67;;;;;;;27.60;49.39;99999.75;5068094;28;20044;-50
2023/08/03 00:10:53;;;;;;;3.80;2.63;;;;;;;27.61;49.09;99988.66;5065594;28;20043;-49
2023/08/03 00:13:20;;;;;;;4.68;2.55;;;;;;;27.61;49.34;99982.38;5065500;28;20044;-48
2023/08/03 00:15:48;;;;;;;4.82;2.90;;;;;;;27.62;49.52;99975.88;5067915;28;20456;-49
2023/08/03 00:18:15;;;;;;;6.00;2.97;;;;;;;27.62;49.26;99973.16;5068060;28;20053;-50
2023/08/03 00:20:43;;;;;;;3.13;1.95;;;;;;;27.63;49.25;99982.16;5065767;28;20041;-50
2023/08/03 00:23:10;;;;;;;4.03;2.50;;;;;;;27.63;49.31;99977.59;5065064;28;20048;-50
2023/08/03 00:25:37;;;;;;;3.63;2.42;;;;;;;27.63;49.54;99982.16;5067843;28;20056;-50
2023/08/03 00:28:04;;;;;;;4.43;2.38;;;;;;;27.64;49.79;99973.81;5067888;28;20366;-58
2023/08/03 00:30:32;;;;;;;4.85;3.03;;;;;;;27.64;49.69;99971.09;5065883;28;20041;-58
2023/08/03 00:33:00;;;;;;;3.90;2.80;;;;;;;27.64;49.95;99970.25;5065888;28;20052;-58
2023/08/03 00:35:27;;;;;;;3.95;2.60;;;;;;;27.64;49.92;99971.09;5059241;28;20064;-58
2023/08/03 00:37:55;;;;;;;3.60;2.22;;;;;;;27.64;50.01;99968.38;5070633;28;20055;-47
2023/08/03 00:40:22;;;;;;;4.85;2.95;;;;;;;27.64;49.63;99968.38;5068011;28;20440;-49
2023/08/03 00:42:49;;;;;;;3.92;2.60;;;;;;;27.65;49.67;99969.22;5063374;28;20045;-49
2023/08/03 00:45:17;;;;;;;4.35;2.65;;;;;;;27.64;49.87;99967.53;5071568;28;20052;-50
2023/08/03 00:47:44;;;;;;;4.70;2.88;;;;;;;27.65;49.74;99961.06;5065261;28;20392;-58
2023/08/03 00:50:11;;;;;;;4.57;2.17;;;;;;;27.64;49.70;99973.81;5069369;28;20041;-58
2023/08/03 00:52:39;;;;;;;3.60;2.67;;;;;;;27.65;50.06;99975.47;5065044;28;20056;-58
2023/08/03 00:55:07;;;;;;;3.50;2.55;;;;;;;27.65;49.81;99971.94;5064461;28;20493;-58
2023/08/03 00:57:34;;;;;;;4.78;2.80;;;;;;;27.65;50.03;99969.22;5068406;28;20047;-58
2023/08/03 01:00:01;;;;;;;3.72;2.67;;;;;;;27.65;50.00;99975.47;5069225;28;20060;-58
2023/08/03 01:02:29;;;;;;;4.53;2.40;;;;;;;27.64;50.13;99968.38;5068222;28;20052;-58
2023/08/03 01:04:56;;;;;;;4.20;2.42;;;;;;;27.66;49.79;99970.88;5071143;28;20040;-58
2023/08/03 01:07:25;;;;;;;3.85;2.53;;;;;;;27.66;50.06;99973.59;5071152;28;20048;-50
2023/08/03 01:09:53;;;;;;;3.70;2.53;;;;;;;27.65;49.83;99966.50;5068722;28;20044;-48
2023/08/03 01:12:20;;;;;;;4.55;2.40;;;;;;;27.66;50.23;99965.44;5068361;28;20037;-50
2023/08/03 01:14:48;;;;;;;3.53;2.63;;;;;;;27.66;50.05;99963.56;5071241;28;20060;-49
2023/08/03 01:17:15;;;;;;;5.50;3.17;;;;;;;27.66;49.77;99968.16;5071111;28;20049;-58
2023/08/03 01:19:43;;;;;;;3.85;2.63;;;;;;;27.65;50.27;99964.59;5068707;28;20052;-48
2023/08/03 01:22:13;;;;;;;5.15;2.97;;;;;;;27.67;50.15;99961.66;5066709;28;20051;-49
2023/08/03 01:24:40;;;;;;;4.20;2.35;;;;;;;27.66;50.17;99965.44;5045765;28;20060;-48
2023/08/03 01:27:07;;;;;;;3.80;2.72;;;;;;;27.67;49.92;99967.09;5073360;28;20047;-58
2023/08/03 01:29:35;;;;;;;4.57;2.70;;;;;;;27.66;50.22;99962.72;5068052;28;20491;-58
2023/08/03 01:32:04;;;;;;;3.22;2.13;;;;;;;27.66;50.05;99960.00;5068243;28;20045;-58
2023/08/03 01:34:31;;;;;;;5.18;2.50;;;;;;;27.67;49.92;99956.22;5069565;28;20483;-58
2023/08/03 01:36:59;;;;;;;4.13;2.70;;;;;;;27.66;49.93;99966.28;5070877;28;20056;-49
2023/08/03 01:39:26;;;;;;;5.18;2.65;;;;;;;27.67;49.87;99956.22;5066699;28;20080;-50
2023/08/03 01:41:55;;;;;;;4.45;3.05;;;;;;;27.67;50.14;99958.94;5062367;28;20045;-50
2023/08/03 01:44:22;;;;;;;4.38;2.92;;;;;;;27.68;50.32;99952.50;5066963;28;20056;-50
2023/08/03 01:46:50;;;;;;;3.88;2.60;;;;;;;27.66;50.25;99936.38;5067477;28;20071;-58
2023/08/03 01:49:18;;;;;;;6.05;2.95;;;;;;;27.67;50.03;99957.09;5066744;28;20075;-58
2023/08/03 01:51:45;;;;;;;4.47;2.50;;;;;;;27.67;49.95;99951.66;5065028;28;20045;-58
2023/08/03 01:54:14;;;;;;;5.95;2.63;;;;;;;27.67;50.03;99962.53;5076150;28;20059;-58
2023/08/03 01:56:42;;;;;;;4.13;2.45;;;;;;;27.67;49.98;99967.97;5073791;28;20040;-57
2023/08/03 01:59:10;;;;;;;3.80;2.33;;;;;;;27.68;50.28;99952.50;5067313;28;20052;-58
2023/08/03 02:01:38;;;;;;;4.35;2.22;;;;;;;27.67;50.43;99956.22;5068127;28;20049;-58
2023/08/03 02:04:06;;;;;;;3.53;2.10;;;;;;;27.68;50.32;99957.94;5064431;28;20358;-58
2023/08/03 02:06:36;;;;;;;3.83;2.58;;;;;;;27.67;50.12;99959.81;5068605;28;20052;-58
2023/08/03 02:09:04;;;;;;;4.03;2.30;;;;;;;27.68;50.19;99964.19;5058214;28;20045;-50
2023/08/03 02:11:33;;;;;;;3.90;2.55;;;;;;;27.69;50.61;99965.03;5068558;28;20037;-50
2023/08/03 02:14:01;;;;;;;3.97;2.25;;;;;;;27.69;50.30;99962.31;5069579;28;20048;-51
2023/08/03 02:16:28;;;;;;;4.68;2.45;;;;;;;27.68;50.49;99966.91;5063196;28;20056;-48
2023/08/03 02:18:56;;;;;;;3.78;2.42;;;;;;;27.68;50.21;99960.66;5069162;28;20052;-58
2023/08/03 02:21:23;;;;;;;4.25;2.60;;;;;;;27.69;50.17;99963.16;5065406;28;20049;-58
2023/08/03 02:23:50;;;;;;;5.05;2.78;;;;;;;27.68;50.55;99966.91;5059646;28;20053;-58
2023/08/03 02:26:18;;;;;;;5.00;2.80;;;;;;;27.68;50.45;99968.81;5068332;28;20049;-58
2023/08/03 02:28:45;;;;;;;3.97;2.70;;;;;;;27.68;50.39;99958.75;5066168;28;20052;-58
2023/08/03 02:31:13;;;;;;;4.00;2.35;;;;;;;27.68;50.22;99958.75;5067442;28;20073;-58
2023/08/03 02:33:45;;;;;;;3.88;2.75;;;;;;;27.68;50.27;99953.31;5063762;28;20044;-57
2023/08/03 02:36:19;;;;;;;5.97;2.53;;;;;;;27.68;50.27;99956.03;5044964;28;20495;-58
2023/08/03 02:38:48;;;;;;;4.22;2.67;;;;;;;27.68;50.12;99961.47;5069215;28;20049;-58
2023/08/03 02:41:16;;;;;;;5.05;2.70;;;;;;;27.67;50.38;99957.09;5066819;28;20416;-59
2023/08/03 02:43:43;;;;;;;4.88;3.00;;;;;;;27.64;50.19;99949.34;5064360;28;20048;-59
2023/08/03 02:46:14;;;;;;;5.22;3.40;;;;;;;27.60;50.34;99954.34;5065731;28;20048;-59
2023/08/03 02:48:43;;;;;;;4.68;3.35;;;;;;;27.56;49.92;99958.53;5064322;28;20493;-59
2023/08/03 02:51:11;;;;;;;5.97;3.05;;;;;;;27.49;49.93;99956.84;5062285;28;20060;-59
2023/08/03 02:53:40;;;;;;;7.18;3.85;;;;;;;27.43;50.21;99953.09;5062623;28;20056;-59
2023/08/03 02:56:09;;;;;;;7.28;3.50;;;;;;;27.41;50.02;99960.59;5064868;28;20055;-59
2023/08/03 02:58:43;;;;;;;6.07;3.38;;;;;;;27.38;50.46;99963.72;5067108;28;20946;-59
2023/08/03 03:01:19;;;;;;;5.13;3.42;;;;;;;27.35;50.16;99966.88;5063290;28;20048;-59
2023/08/03 03:03:48;;;;;;;7.13;3.53;;;;;;;27.32;50.61;99967.28;5060906;28;20059;-59
2023/08/03 03:06:17;;;;;;;4.72;2.95;;;;;;;27.32;50.33;99959.13;5061845;28;20064;-59
2023/08/03 03:08:47;;;;;;;6.57;3.58;;;;;;;27.33;50.40;99952.63;5063305;28;20064;-59
2023/08/03 03:11:15;;;;;;;5.07;3.42;;;;;;;27.32;50.55;99946.38;5062182;28;20505;-59
2023/08/03 03:13:42;;;;;;;7.95;3.55;;;;;;;27.33;50.61;99945.31;5067006;28;20435;-59
2023/08/03 03:16:11;;;;;;;5.32;3.28;;;;;;;27.33;50.14;99952.63;5062151;28;20404;-59
2023/08/03 03:18:38;;;;;;;6.40;3.88;;;;;;;27.28;50.13;99947.00;5060614;28;20053;-60
2023/08/03 03:21:07;;;;;;;6.05;3.80;;;;;;;27.22;49.99;99936.91;5063827;28;20055;-60
2023/08/03 03:23:34;;;;;;;5.15;3.00;;;;;;;27.19;49.66;99935.47;5066382;28;20033;-60
2023/08/03 03:26:01;;;;;;;6.57;3.33;;;;;;;27.18;49.74;99941.94;5065314;28;20045;-60
2023/08/03 03:28:29;;;;;;;5.47;4.10;;;;;;;27.16;49.48;99938.59;5065820;28;20045;-59
2023/08/03 03:30:56;;;;;;;6.68;3.88;;;;;;;27.12;49.71;99931.91;5064021;28;20059;-59
2023/08/03 03:33:23;;;;;;;5.80;3.25;;;;;;;27.09;49.42;99934.97;5066614;28;20103;-60
2023/08/03 03:35:56;;;;;;;4.65;3.55;;;;;;;27.10;49.67;99937.53;5065516;28;20044;-60
2023/08/03 03:38:23;;;;;;;5.45;3.70;;;;;;;27.11;49.70;99939.22;5059877;28;20408;-61
2023/08/03 03:40:51;;;;;;;4.25;3.28;;;;;;;27.15;49.48;99938.81;5067550;28;20048;-61
2023/08/03 03:43:19;;;;;;;5.28;3.25;;;;;;;27.18;49.87;99943.81;5063668;28;20384;-61
2023/08/03 03:45:46;;;;;;;4.55;3.53;;;;;;;27.20;50.33;99944.47;5056490;28;20053;-61
2023/08/03 03:48:15;;;;;;;4.35;3.00;;;;;;;27.21;50.52;99936.09;5061392;28;20488;-60
2023/08/03 03:50:43;;;;;;;6.05;3.63;;;;;;;27.20;50.72;99939.03;5060819;28;20060;-60
2023/08/03 03:53:10;;;;;;;5.80;3.92;;;;;;;27.19;50.62;99934.63;5068616;28;20059;-60
2023/08/03 03:55:42;;;;;;;5.60;3.30;;;;;;;27.19;50.84;99931.91;5055967;28;20049;-60
2023/08/03 03:58:09;;;;;;;6.30;3.25;;;;;;;27.19;50.83;99932.75;5061338;28;20288;-60
2023/08/03 04:00:40;;;;;;;4.38;3.53;;;;;;;27.18;50.99;99933.78;5060823;28;20064;-60
2023/08/03 04:03:11;;;;;;;4.82;3.15;;;;;;;27.18;51.05;99927.50;5054115;28;20045;-60
2023/08/03 04:05:39;;;;;;;4.97;3.13;;;;;;;27.17;50.86;99948.41;5060172;28;20401;-60
2023/08/03 04:08:07;;;;;;;5.25;3.28;;;;;;;27.15;50.77;99955.13;5061122;28;20049;-60
2023/08/03 04:10:35;;;;;;;5.55;3.50;;;;;;;27.15;50.72;99957.81;5059676;28;20075;-60
2023/08/03 04:13:02;;;;;;;5.55;3.65;;;;;;;27.15;50.81;99955.13;5059163;28;20049;-60
2023/08/03 04:15:30;;;;;;;5.15;3.50;;;;;;;27.14;50.43;99948.81;5061085;28;20045;-60
2023/08/03 04:17:57;;;;;;;4.53;3.08;;;;;;;27.16;50.50;99954.06;5060989;28;20480;-59
2023/08/03 04:20:29;;;;;;;4.40;2.80;;;;;;;27.18;50.66;99955.50;5059465;28;20061;-59
2023/08/03 04:22:57;;;;;;;6.07;3.88;;;;;;;27.20;50.60;99958.88;5060775;28;20044;-59
2023/08/03 04:25:25;;;;;;;9.35;3.50;;;;;;;27.18;50.89;99955.50;5053799;28;20524;-60
2023/08/03 04:27:58;;;;;;;5.53;3.55;;;;;;;27.16;50.60;99954.91;5062124;28;20078;-61
2023/08/03 04:30:33;;;;;;;4.35;3.20;;;;;;;27.16;50.75;99951.34;5063127;28;20063;-61
2023/08/03 04:33:01;;;;;;;5.47;3.40;;;;;;;27.16;50.87;99948.63;5056024;28;20052;-61
2023/08/03 04:35:31;;;;;;;4.45;3.47;;;;;;;27.16;51.20;99952.19;5021077;28;1169937;-61
2023/08/03 04:38:07;;;;;;;6.47;3.50;;;;;;;27.16;51.08;99956.78;5066180;28;20064;-60
2023/08/03 04:40:37;;;;;;;5.55;3.40;;;;;;;27.08;51.59;99949.63;5065001;28;20052;-59
2023/08/03 04:43:05;;;;;;;4.45;3.30;;;;;;;27.05;51.47;99959.00;5060913;28;20167;-60
2023/08/03 04:45:33;;;;;;;4.18;3.20;;;;;;;27.04;51.97;99962.75;5062086;28;20048;-60
2023/08/03 04:48:00;;;;;;;5.97;3.55;;;;;;;27.04;51.72;99961.94;5067067;28;20495;-60
2023/08/03 04:50:29;;;;;;;5.68;3.50;;;;;;;27.03;51.87;99963.81;5065383;28;20056;-60
2023/08/03 04:52:58;;;;;;;5.05;4.15;;;;;;;27.04;52.16;99957.34;5063299;28;20040;-60
2023/08/03 04:55:25;;;;;;;4.93;3.40;;;;;;;27.02;51.84;99958.56;5057386;28;20037;-60
2023/08/03 04:57:53;;;;;;;6.60;3.90;;;;;;;27.00;52.07;99958.78;5068379;28;20071;-61
2023/08/03 05:00:22;;;;;;;5.07;3.63;;;;;;;26.98;52.09;99960.88;5060682;28;20083;-61
2023/08/03 05:02:50;;;;;;;4.93;3.42;;;;;;;26.99;51.75;99969.88;5059569;28;20068;-61
2023/08/03 05:05:17;;;;;;;4.75;3.08;;;;;;;26.96;51.88;99959.41;5062686;28;20388;-61
2023/08/03 05:07:47;;;;;;;5.07;3.50;;;;;;;26.93;51.74;99957.91;5084305;28;20055;-61
2023/08/03 05:10:15;;;;;;;4.65;3.38;;;;;;;26.93;51.96;99965.22;5060718;28;20056;-61
2023/08/03 05:12:43;;;;;;;5.40;3.30;;;;;;;26.91;51.89;99961.88;5060379;28;20393;-61
2023/08/03 05:15:10;;;;;;;6.53;3.50;;;;;;;26.87;52.04;99961.44;5063214;28;20404;-61
2023/08/03 05:17:42;;;;;;;5.25;3.22;;;;;;;26.89;52.13;99972.94;5063868;28;20499;-59
2023/08/03 05:20:10;;;;;;;4.22;3.10;;;;;;;26.93;52.24;99976.09;5059022;28;20400;-60
2023/08/03 05:22:37;;;;;;;5.03;3.45;;;;;;;26.94;52.05;99978.63;5064218;28;20515;-59
2023/08/03 05:25:05;;;;;;;4.18;2.92;;;;;;;26.95;52.61;99988.44;5073318;28;20044;-60
2023/08/03 05:27:32;;;;;;;4.43;3.45;;;;;;;26.98;52.52;99987.19;5068315;28;20377;-60
2023/08/03 05:30:00;;;;;;;7.35;3.55;;;;;;;27.00;52.57;99987.81;5068275;28;20057;-60
2023/08/03 05:32:27;;;;;;;6.30;3.55;;;;;;;26.99;52.87;99981.56;5070842;28;20475;-60
2023/08/03 05:34:54;;;;;;;5.40;3.28;;;;;;;26.99;52.69;99981.56;5070812;28;20049;-60
2023/08/03 05:37:22;;;;;;;6.20;3.10;;;;;;;26.99;52.85;99995.16;5070162;28;20055;-60
2023/08/03 05:39:49;;;;;;;4.70;3.35;;;;;;;26.98;52.88;99987.19;5067053;28;20048;-60
2023/08/03 05:42:17;;;;;;;5.93;3.65;;;;;;;26.97;52.91;99980.06;5063799;28;20048;-60
2023/08/03 05:44:45;;;;;;;7.13;3.60;;;;;;;26.97;53.30;99991.78;5070387;28;20047;-60
2023/08/03 05:47:17;;;;;;;6.55;3.35;;;;;;;26.96;53.24;99992.81;5067943;28;20388;-60
2023/08/03 05:49:45;;;;;;;8.02;3.97;;;;;;;26.98;53.25;100001.63;5068673;28;20052;-60
2023/08/03 05:52:14;;;;;;;5.35;3.83;;;;;;;27.01;53.28;99997.66;5070413;28;20040;-60
2023/08/03 05:54:49;;;;;;;7.50;3.92;;;;;;;27.02;53.37;99992.03;5070136;28;20052;-60
2023/08/03 05:57:17;;;;;;;5.78;3.83;;;;;;;27.02;53.45;99991.16;5058156;28;20488;-60
2023/08/03 05:59:45;;;;;;;4.68;3.30;;;;;;;27.02;53.74;99985.72;5069629;28;20051;-60
2023/08/03 06:02:28;;;;;;;6.25;3.55;;;;;;;27.00;53.99;99985.09;5070124;28;20048;-60
2023/08/03 06:04:55;;;;;;;6.55;3.97;;;;;;;26.99;54.41;99987.00;5071177;28;20049;-60
2023/08/03 06:07:23;;;;;;;4.40;3.20;;;;;;;27.01;54.32;100000.38;5068214;28;20064;-61
2023/08/03 06:09:50;;;;;;;6.15;4.03;;;;;;;27.03;54.64;100007.28;5070172;28;20044;-60
2023/08/03 06:12:18;;;;;;;5.47;3.85;;;;;;;27.06;54.37;100012.31;5070097;28;20048;-61
2023/08/03 06:14:45;;;;;;;5.63;3.60;;;;;;;27.10;54.20;100019.06;5067258;28;20040;-60
2023/08/03 06:17:13;;;;;;;5.72;3.92;;;;;;;27.13;54.30;100006.09;5067415;28;20045;-60
2023/08/03 06:19:41;;;;;;;5.18;3.95;;;;;;;27.16;54.21;100005.69;5069775;28;20052;-59
2023/08/03 06:22:20;;;;;;;5.53;3.75;;;;;;;27.17;54.64;99993.78;5067936;28;20053;-59
2023/08/03 06:24:48;;;;;;;5.07;3.75;;;;;;;27.19;54.69;99997.97;5057652;28;20401;-59
2023/08/03 06:27:16;;;;;;;5.70;3.60;;;;;;;27.21;54.67;99989.59;5068883;28;20067;-59
2023/08/03 06:29:44;;;;;;;6.82;3.78;;;;;;;27.22;54.76;99974.97;5069605;28;20052;-60
2023/08/03 06:32:21;;;;;;;6.03;4.03;;;;;;;27.24;54.74;99990.03;5069157;28;20397;-60
2023/08/03 06:34:49;;;;;;;4.93;3.65;;;;;;;27.25;55.21;100005.28;5065618;28;20041;-59
2023/08/03 06:37:16;;;;;;;5.72;3.42;;;;;;;27.25;55.01;100008.00;5071052;28;20063;-63
2023/08/03 06:39:43;;;;;;;5.03;3.90;;;;;;;27.25;55.33;100001.75;5058563;28;20057;-63
2023/08/03 06:42:11;;;;;;;6.10;4.32;;;;;;;27.25;55.29;100007.19;5067516;28;20048;-63
2023/08/03 06:44:38;;;;;;;4.55;3.53;;;;;;;27.26;55.39;100019.72;5065858;28;20468;-63
2023/08/03 06:47:06;;;;;;;6.03;4.25;;;;;;;27.27;55.54;100013.25;5068932;28;20488;-62
2023/08/03 06:49:33;;;;;;;6.43;4.22;;;;;;;27.30;55.36;100010.09;5069188;28;20045;-63
2023/08/03 06:52:01;;;;;;;5.13;3.97;;;;;;;27.31;55.52;100007.22;5066977;28;20052;-62
2023/08/03 06:54:28;;;;;;;6.40;4.68;;;;;;;27.34;55.46;99993.19;5067137;28;20037;-62
2023/08/03 06:56:56;;;;;;;6.40;4.40;;;;;;;27.35;55.72;100000.31;5068773;28;20051;-62
2023/08/03 06:59:23;;;;;;;6.43;4.50;;;;;;;27.36;55.67;99999.28;5067391;28;20048;-61
2023/08/03 07:01:50;;;;;;;8.05;4.22;;;;;;;27.38;55.38;100004.50;5064423;28;20052;-61
2023/08/03 07:04:18;;;;;;;4.97;3.47;;;;;;;27.38;55.54;100000.94;5064846;28;20029;-62
2023/08/03 07:06:46;;;;;;;6.20;4.10;;;;;;;27.37;55.39;99997.38;5063013;28;20071;-60
2023/08/03 07:09:14;;;;;;;5.25;3.75;;;;;;;27.38;55.50;100000.94;5073944;28;20052;-61
2023/08/03 07:11:41;;;;;;;5.25;4.00;;;;;;;27.38;55.64;99999.06;5072797;28;20045;-60
2023/08/03 07:14:09;;;;;;;5.45;3.90;;;;;;;27.38;56.01;99996.34;5056455;28;20069;-62
2023/08/03 07:16:38;;;;;;;5.55;3.35;;;;;;;27.39;55.89;100008.91;5056283;28;20053;-59
2023/08/03 07:19:10;;;;;;;5.72;3.72;;;;;;;27.40;56.16;100010.56;5056664;28;20067;-60
2023/08/03 07:21:37;;;;;;;5.53;4.20;;;;;;;27.40;55.86;100007.84;5057072;28;20550;-60
2023/08/03 07:24:05;;;;;;;6.85;3.80;;;;;;;27.43;55.87;100012.88;5056017;28;20045;-61
2023/08/03 07:26:33;;;;;;;6.85;4.18;;;;;;;27.47;55.90;100014.16;5056192;28;20397;-61
2023/08/03 07:29:01;;;;;;;7.13;4.00;;;;;;;27.51;56.39;100009.16;5056985;28;20052;-62
2023/08/03 07:31:28;;;;;;;5.22;4.10;;;;;;;27.52;56.16;100003.50;5056635;28;20856;-62
2023/08/03 07:33:55;;;;;;;8.18;4.88;;;;;;;27.55;56.48;99996.81;5056031;28;20049;-57
2023/08/03 07:36:23;;;;;;;6.53;4.15;;;;;;;27.59;56.45;100004.34;5055910;28;20072;-57
2023/08/03 07:38:52;;;;;;;6.15;4.10;;;;;;;27.60;56.71;100006.03;5053686;28;20053;-61
2023/08/03 07:41:19;;;;;;;6.28;4.07;;;;;;;27.60;56.49;100000.56;5056821;28;20049;-61
2023/08/03 07:43:48;;;;;;;6.00;3.75;;;;;;;27.60;56.60;100005.19;5055915;28;20057;-61
2023/08/03 07:46:16;;;;;;;5.55;3.47;;;;;;;27.61;56.43;99998.69;5055632;28;20049;-62
2023/08/03 07:48:43;;;;;;;4.72;3.70;;;;;;;27.63;56.24;100009.34;5059072;28;20067;-56
2023/08/03 07:51:14;;;;;;;4.85;3.55;;;;;;;27.63;56.28;100004.78;5072513;28;20044;-56
2023/08/03 07:53:45;;;;;;;4.97;3.72;;;;;;;27.65;55.80;100015.44;5071699;28;20545;-55
2023/08/03 07:56:22;;;;;;;7.50;4.00;;;;;;;27.67;56.01;100002.44;5073046;28;20056;-56
2023/08/03 07:58:51;;;;;;;5.55;4.00;;;;;;;27.69;55.84;100005.81;5057493;28;20040;-59
2023/08/03 08:01:19;;;;;;;5.88;3.35;;;;;;;27.71;55.97;100003.72;5054967;28;20497;-62
2023/08/03 08:03:47;;;;;;;4.90;3.55;;;;;;;27.72;55.57;100008.13;5055248;28;20045;-60
2023/08/03 08:06:17;;;;;;;4.70;3.55;;;;;;;27.74;55.64;100006.06;5053622;28;20044;-62
2023/08/03 08:08:45;;;;;;;5.38;3.65;;;;;;;27.75;55.68;100010.44;5071046;28;20040;-62
2023/08/03 08:11:15;;;;;;;6.95;3.70;;;;;;;27.76;55.63;100015.69;5073273;28;20416;-62
2023/08/03 08:13:43;;;;;;;6.63;3.80;;;;;;;27.77;55.53;100006.47;5072510;28;20050;-62
2023/08/03 08:16:12;;;;;;;6.65;4.20;;;;;;;27.78;55.59;99991.00;5072136;28;20059;-62
2023/08/03 08:18:39;;;;;;;5.95;3.58;;;;;;;27.82;55.48;99997.69;5072927;28;20055;-63
2023/08/03 08:21:12;;;;;;;5.10;3.78;;;;;;;27.82;55.58;99990.38;5072261;28;20044;-62
2023/08/03 08:23:40;;;;;;;5.30;3.65;;;;;;;27.84;55.32;99991.00;5072744;28;20051;-62
2023/08/03 08:26:18;;;;;;;5.95;3.92;;;;;;;27.85;55.41;99979.09;5071830;28;20052;-62
2023/08/03 08:28:47;;;;;;;5.07;3.30;;;;;;;27.85;55.43;99987.25;5056393;28;20045;-62
2023/08/03 08:31:30;;;;;;;4.85;3.22;;;;;;;27.87;55.62;99997.06;5071972;28;20149;-62
2023/08/03 08:34:00;;;;;;;4.70;3.58;;;;;;;27.86;56.04;100001.69;5072430;28;20052;-62
2023/08/03 08:36:27;;;;;;;5.55;3.67;;;;;;;27.87;56.15;99994.34;5072309;28;20067;-55
2023/08/03 08:38:55;;;;;;;4.72;3.50;;;;;;;27.87;55.84;100000.63;5072145;28;20055;-55
2023/08/03 08:41:22;;;;;;;5.55;3.72;;;;;;;27.87;55.72;99995.19;5072471;28;20049;-54
2023/08/03 08:43:50;;;;;;;5.82;3.40;;;;;;;27.88;55.88;99991.44;5069186;28;20045;-55
2023/08/03 08:46:17;;;;;;;6.95;3.50;;;;;;;27.88;55.36;99986.00;5072106;28;20036;-55
2023/08/03 08:48:45;;;;;;;6.13;3.60;;;;;;;27.91;55.40;99987.44;5064083;28;20056;-62
2023/08/03 08:51:17;;;;;;;7.63;3.97;;;;;;;27.93;55.46;99974.50;5067017;28;20049;-63
2023/08/03 08:54:04;;;;;;;5.88;3.30;;;;;;;27.94;55.12;99979.72;5071304;28;20059;-62
2023/08/03 08:56:37;;;;;;;4.50;2.67;;;;;;;27.96;55.43;99980.34;5072730;28;20045;-62
2023/08/03 08:59:08;;;;;;;4.30;3.08;;;;;;;27.96;55.39;99982.25;5073244;28;20512;-62
2023/08/03 09:01:51;;;;;;;5.00;3.67;;;;;;;27.97;55.58;99979.28;5075980;28;20045;-62
2023/08/03 09:04:32;;;;;;;5.95;3.22;;;;;;;27.97;55.37;99982.03;5076169;28;20048;-63
2023/08/03 09:07:03;;;;;;;4.10;3.10;;;;;;;27.99;55.72;99984.53;5060766;28;20045;-56
2023/08/03 09:09:35;;;;;;;4.63;2.95;;;;;;;27.99;55.66;99984.53;5062107;28;20041;-56
2023/08/03 09:12:04;;;;;;;5.00;3.13;;;;;;;27.99;55.44;99990.78;5063403;28;20044;-56
2023/08/03 09:14:51;;;;;;;4.68;2.97;;;;;;;28.02;56.10;99990.38;5065672;28;20041;-56
2023/08/03 09:17:20;;;;;;;5.07;3.10;;;;;;;28.02;56.24;99989.56;5074307;28;20044;-55
2023/08/03 09:19:48;;;;;;;4.43;3.40;;;;;;;28.03;55.69;99992.06;5060442;28;20049;-56
2023/08/03 09:22:21;;;;;;;5.30;3.10;;;;;;;28.04;56.15;100001.06;5073805;28;20040;-56
2023/08/03 09:25:01;;;;;;;5.50;3.53;;;;;;;28.03;55.95;99997.50;5073512;28;20053;-56
2023/08/03 09:27:28;;;;;;;4.97;3.42;;;;;;;28.05;55.83;100003.56;5063589;28;20385;-54
2023/08/03 09:30:03;;;;;;;4.82;3.22;;;;;;;28.07;55.29;99996.03;5073226;28;20435;-49
2023/08/03 09:32:42;;;;;;;3.88;3.10;;;;;;;28.08;55.60;99991.44;5073714;28;20380;-49
2023/08/03 09:35:23;;;;;;;4.10;3.30;;;;;;;28.08;55.54;99991.44;5072759;28;20389;-49
2023/08/03 09:37:55;;;;;;;4.95;3.35;;;;;;;28.08;55.13;100002.31;5075356;28;20056;-58
2023/08/03 09:40:24;;;;;;;4.18;2.97;;;;;;;28.09;55.12;100004.81;5075302;28;20045;-58
2023/08/03 09:42:53;;;;;;;4.45;2.90;;;;;;;28.08;55.27;99997.72;5074913;28;20045;-58
2023/08/03 09:45:22;;;;;;;5.32;3.08;;;;;;;28.08;55.27;99999.59;5061686;28;20049;-58
2023/08/03 09:47:56;;;;;;;5.03;2.97;;;;;;;28.08;55.35;99997.72;5074517;28;20040;-59
2023/08/03 09:50:26;;;;;;;5.53;2.95;;;;;;;28.08;55.26;99997.72;5070541;28;20377;-59
2023/08/03 09:52:54;;;;;;;5.43;2.88;;;;;;;28.09;55.29;100004.81;5059533;28;20052;-58
2023/08/03 09:55:32;;;;;;;5.03;2.67;;;;;;;28.10;55.50;99989.34;5057231;28;20045;-58
2023/08/03 09:58:05;;;;;;;3.53;2.83;;;;;;;28.13;55.34;99985.38;5066353;28;20056;-55
2023/08/03 10:00:34;;;;;;;4.88;3.22;;;;;;;28.13;55.79;99977.22;5072631;28;20044;-56
2023/08/03 10:03:06;;;;;;;3.83;2.65;;;;;;;28.13;55.62;99985.38;5069307;28;20052;-55
2023/08/03 10:05:40;;;;;;;5.43;2.97;;;;;;;28.14;56.00;99987.03;5066382;28;20389;-58
2023/08/03 10:08:15;;;;;;;4.38;3.00;;;;;;;28.14;55.72;100006.09;5059273;28;20524;-54
2023/08/03 10:10:48;;;;;;;3.85;2.70;;;;;;;28.14;55.92;100003.38;5070687;28;20055;-55
2023/08/03 10:13:15;;;;;;;4.28;3.08;;;;;;;28.14;55.52;100004.19;5064175;28;20053;-56
2023/08/03 10:15:43;;;;;;;6.07;2.97;;;;;;;28.15;55.84;100005.03;5062777;28;20037;-57
2023/08/03 10:18:11;;;;;;;3.95;2.78;;;;;;;28.16;55.96;99987.69;5071773;28;20412;-57
2023/08/03 10:20:40;;;;;;;3.42;2.58;;;;;;;28.15;55.69;99986.81;5071686;28;20040;-54
2023/08/03 10:23:10;;;;;;;4.78;3.35;;;;;;;28.17;55.71;99992.06;5073777;28;20041;-55
2023/08/03 10:26:00;;;;;;;5.10;2.65;;;;;;;28.15;55.71;99997.69;5073915;28;20574;-54
2023/08/03 10:28:40;;;;;;;4.65;3.22;;;;;;;28.16;56.02;99998.56;5071865;28;20048;-58
2023/08/03 10:31:14;;;;;;;6.30;3.28;;;;;;;28.16;55.96;99998.56;5073109;28;20044;-58
2023/08/03 10:33:49;;;;;;;4.97;3.15;;;;;;;28.16;55.57;100004.84;5073299;28;20075;-58
2023/08/03 10:36:28;;;;;;;8.02;3.88;;;;;;;28.17;55.83;99994.78;5072267;28;20048;-58
2023/08/03 10:38:58;;;;;;;7.60;3.58;;;;;;;28.17;56.00;100000.22;5074402;28;20049;-58
2023/08/03 10:41:26;;;;;;;6.93;3.60;;;;;;;28.16;55.73;99984.97;5073533;28;20056;-58
2023/08/03 10:44:05;;;;;;;6.28;4.13;;;;;;;28.16;56.08;99993.94;5072406;28;20052;-58
2023/08/03 10:46:34;;;;;;;6.97;3.60;;;;;;;28.16;55.79;100004.00;5067986;28;20045;-56
2023/08/03 10:49:20;;;;;;;6.80;3.92;;;;;;;28.17;56.02;100000.22;5065075;28;20049;-55
2023/08/03 10:52:19;;;;;;;7.35;3.75;;;;;;;28.17;55.76;99992.06;5072201;28;20045;-55
2023/08/03 10:54:47;;;;;;;4.95;3.30;;;;;;;28.16;55.79;100004.84;5065511;28;20044;-54
2023/08/03 10:57:36;;;;;;;7.95;3.90;;;;;;;28.17;56.11;100005.66;5060660;28;20045;-56
2023/08/03 11:00:04;;;;;;;6.88;3.67;;;;;;;28.17;55.86;99994.78;5060691;28;20053;-55
2023/08/03 11:02:33;;;;;;;5.47;3.80;;;;;;;28.16;55.66;99988.50;5064598;28;20056;-56
2023/08/03 11:05:04;;;;;;;6.47;4.07;;;;;;;28.18;55.77;99999.16;5068958;28;20055;-55
2023/08/03 11:07:37;;;;;;;8.52;3.45;;;;;;;28.18;56.07;99993.72;5070102;28;20566;-56
2023/08/03 11:10:09;;;;;;;7.30;3.67;;;;;;;28.19;56.11;99996.22;5058564;28;20045;-55
2023/08/03 11:12:38;;;;;;;5.95;3.67;;;;;;;28.20;55.75;99995.22;5072568;28;20055;-54
2023/08/03 11:15:07;;;;;;;7.57;3.22;;;;;;;28.21;55.78;99996.88;5072131;28;20052;-55
2023/08/03 11:17:36;;;;;;;5.93;3.38;;;;;;;28.20;55.69;99997.94;5071728;28;20053;-58
2023/08/03 11:20:07;;;;;;;7.40;3.33;;;;;;;28.21;55.77;100007.75;5072694;28;20047;-58
2023/08/03 11:22:35;;;;;;;5.57;3.28;;;;;;;28.22;55.83;100005.88;5072691;28;20052;-58
2023/08/03 11:25:04;;;;;;;4.55;2.92;;;;;;;28.22;55.85;100003.16;5071089;28;20044;-58
2023/08/03 11:27:32;;;;;;;6.35;3.22;;;;;;;28.21;55.80;99987.88;5072328;28;20047;-58
2023/08/03 11:30:02;;;;;;;5.25;3.33;;;;;;;28.22;56.12;99993.09;5073078;28;20052;-58
2023/08/03 11:32:32;;;;;;;4.38;2.83;;;;;;;28.23;56.02;99985.75;5072482;28;20048;-58
2023/08/03 11:35:01;;;;;;;4.95;3.15;;;;;;;28.23;55.83;99977.59;5069839;28;20059;-57
2023/08/03 11:37:33;;;;;;;3.95;2.53;;;;;;;28.23;55.85;99985.75;5071712;28;20051;-59
2023/08/03 11:40:05;;;;;;;5.15;2.63;;;;;;;28.24;55.31;99990.19;5061515;28;20469;-57
2023/08/03 11:42:35;;;;;;;5.07;2.83;;;;;;;28.25;55.68;99986.41;5053517;28;20442;-57